PWSweather.com
Personal Weather Stations
Station Observations
SHAHALMS1
Eftra, Falkenberg, HA

EftraFalkenberg, HA

Lat: 56.85, Lon: 12.65

Elevation: 140

Station Type:

http://hem.passagen.se/risarp101

High Low Average
Temperature 58.1°F14.5°C 53.1°F11.7°C 55.9°F13.3°C
Dew Point 55.3°F12.9°C 42.8°F6.0°C 50.9°F10.5°C
Winds 27.0 mph 43.5 kmh Calm Calm 11.0 mph WSW17.7 kmh WSW
Wind Gusts 33.3 mph53.6 kmh -- 15.0 mph24.1 kmh
Humidity 92% 68% 84%
Pressure 30.27 in1025.1 mb 29.83 in1010.2 mb -
Precipitation 0.05 in1.3 mm - -
Hour Temp Dew Point Humidity Winds Wind Gusts Pressure Precip Precip Rate Daily Precip Total
12:00 AM 53.1°F11.7°C 42.8°F6.0°C 68% 7.0 mph W11.3 kmh W 8.6 mph13.8 kmh 30.27 in1025.1 mb 0.00 in0.0 mm 0.00 in0.0 mm 0.00 in0.0 mm
12:15 AM 53.1°F11.7°C 43.2°F6.2°C 69% 7.0 mph W11.3 kmh W 8.6 mph13.8 kmh 30.27 in1025.1 mb 0.00 in0.0 mm 0.00 in0.0 mm 0.00 in0.0 mm
12:30 AM 53.1°F11.7°C 42.8°F6.0°C 68% 7.0 mph W11.3 kmh W 8.6 mph13.8 kmh 30.27 in1025.1 mb 0.00 in0.0 mm 0.00 in0.0 mm 0.00 in0.0 mm
12:45 AM 53.2°F11.8°C 42.9°F6.1°C 68% 9.9 mph W15.9 kmh W 12.2 mph19.6 kmh 30.27 in1025.1 mb 0.00 in0.0 mm 0.00 in0.0 mm 0.00 in0.0 mm
01:00 AM 53.4°F11.9°C 43.5°F6.4°C 69% 9.9 mph W15.9 kmh W 12.2 mph19.6 kmh 30.27 in1025.1 mb 0.00 in0.0 mm 0.00 in0.0 mm 0.00 in0.0 mm
01:15 AM 53.4°F11.9°C 43.9°F6.6°C 70% 9.9 mph W15.9 kmh W 12.2 mph19.6 kmh 30.24 in1024.0 mb 0.00 in0.0 mm 0.00 in0.0 mm 0.00 in0.0 mm
01:30 AM 53.2°F11.8°C 44.1°F6.7°C 71% 9.2 mph WSW14.8 kmh WSW 19.7 mph31.7 kmh 30.21 in1023.0 mb 0.00 in0.0 mm 0.00 in0.0 mm 0.00 in0.0 mm
01:45 AM 53.6°F12.0°C 45.2°F7.3°C 73% 4.9 mph SSE7.9 kmh SSE 6.1 mph9.8 kmh 30.21 in1023.0 mb 0.00 in0.0 mm 0.00 in0.0 mm 0.00 in0.0 mm
02:15 AM 54.0°F12.2°C 46.2°F7.9°C 75% Calm Calm -- 30.21 in1023.0 mb 0.00 in0.0 mm 0.00 in0.0 mm 0.00 in0.0 mm
02:30 AM 54.1°F12.3°C 46.4°F8.0°C 75% 21.7 mph W34.9 kmh W 33.3 mph53.6 kmh 30.21 in1023.0 mb 0.00 in0.0 mm 0.00 in0.0 mm 0.00 in0.0 mm
02:45 AM 54.5°F12.5°C 47.1°F8.4°C 76% 27.0 mph W43.5 kmh W 33.3 mph53.6 kmh 30.18 in1022.0 mb 0.00 in0.0 mm 0.00 in0.0 mm 0.00 in0.0 mm
03:00 AM 54.7°F12.6°C 48.0°F8.9°C 78% 27.0 mph W43.5 kmh W 33.3 mph53.6 kmh 30.18 in1022.0 mb 0.00 in0.0 mm 0.00 in0.0 mm 0.00 in0.0 mm
03:15 AM 54.7°F12.6°C 48.0°F8.9°C 78% 14.5 mph W23.3 kmh W 17.9 mph28.8 kmh 30.18 in1022.0 mb 0.00 in0.0 mm 0.00 in0.0 mm 0.00 in0.0 mm
03:30 AM 54.5°F12.5°C 47.1°F8.4°C 76% 14.5 mph W23.3 kmh W 17.9 mph28.8 kmh 30.18 in1022.0 mb 0.00 in0.0 mm 0.00 in0.0 mm 0.00 in0.0 mm
03:45 AM 54.3°F12.4°C 46.6°F8.1°C 75% 14.5 mph W23.3 kmh W 17.9 mph28.8 kmh 30.15 in1021.0 mb 0.00 in0.0 mm 0.00 in0.0 mm 0.00 in0.0 mm
04:00 AM 54.3°F12.4°C 46.2°F7.9°C 74% 7.0 mph S11.3 kmh S 8.6 mph13.8 kmh 30.12 in1020.0 mb 0.00 in0.0 mm 0.00 in0.0 mm 0.00 in0.0 mm
04:15 AM 53.8°F12.1°C 46.4°F8.0°C 76% 7.0 mph S11.3 kmh S 8.6 mph13.8 kmh 30.15 in1021.0 mb 0.00 in0.0 mm 0.00 in0.0 mm 0.00 in0.0 mm
04:30 AM 53.8°F12.1°C 46.4°F8.0°C 76% 9.7 mph W15.6 kmh W 15.4 mph24.8 kmh 30.18 in1022.0 mb 0.00 in0.0 mm 0.00 in0.0 mm 0.00 in0.0 mm
04:45 AM 54.0°F12.2°C 46.9°F8.3°C 77% 18.6 mph W29.9 kmh W 27.2 mph43.8 kmh 30.15 in1021.0 mb 0.00 in0.0 mm 0.00 in0.0 mm 0.00 in0.0 mm
05:00 AM 54.1°F12.3°C 47.4°F8.6°C 78% 12.5 mph W20.1 kmh W 21.1 mph34.0 kmh 30.12 in1020.0 mb 0.00 in0.0 mm 0.00 in0.0 mm 0.00 in0.0 mm
05:15 AM 54.3°F12.4°C 48.3°F9.1°C 80% 13.0 mph WSW20.9 kmh WSW 23.3 mph37.5 kmh 30.09 in1019.0 mb 0.00 in0.0 mm 0.00 in0.0 mm 0.00 in0.0 mm
05:30 AM 54.0°F12.2°C 48.9°F9.4°C 83% 12.6 mph SW20.3 kmh SW 28.3 mph45.5 kmh 30.07 in1018.3 mb 0.00 in0.0 mm 0.00 in0.0 mm 0.00 in0.0 mm
05:45 AM 54.0°F12.2°C 49.6°F9.8°C 85% 13.9 mph SSW22.4 kmh SSW 19.7 mph31.7 kmh 30.09 in1019.0 mb 0.00 in0.0 mm 0.00 in0.0 mm 0.00 in0.0 mm
06:00 AM 53.8°F12.1°C 50.0°F10.0°C 87% 9.0 mph S14.5 kmh S 14.0 mph22.5 kmh 30.07 in1018.3 mb 0.00 in0.0 mm 0.00 in0.0 mm 0.00 in0.0 mm
06:15 AM 53.8°F12.1°C 50.3°F10.2°C 88% 7.6 mph S12.2 kmh S 9.3 mph15.0 kmh 30.07 in1018.3 mb 0.00 in0.0 mm 0.00 in0.0 mm 0.00 in0.0 mm
06:30 AM 54.0°F12.2°C 50.5°F10.3°C 88% 7.6 mph S12.2 kmh S 9.3 mph15.0 kmh 30.07 in1018.3 mb 0.00 in0.0 mm 0.00 in0.0 mm 0.00 in0.0 mm
06:45 AM 54.0°F12.2°C 50.5°F10.3°C 88% 7.6 mph S12.2 kmh S 9.3 mph15.0 kmh 30.04 in1017.3 mb 0.00 in0.0 mm 0.00 in0.0 mm 0.00 in0.0 mm
07:00 AM 54.1°F12.3°C 50.4°F10.2°C 87% 7.6 mph S12.2 kmh S 9.3 mph15.0 kmh 30.04 in1017.3 mb 0.00 in0.0 mm 0.00 in0.0 mm 0.00 in0.0 mm
07:15 AM 54.3°F12.4°C 50.2°F10.1°C 86% 23.0 mph W37.0 kmh W 28.3 mph45.5 kmh 30.04 in1017.3 mb 0.00 in0.0 mm 0.00 in0.0 mm 0.00 in0.0 mm
07:30 AM 54.7°F12.6°C 50.6°F10.3°C 86% 16.7 mph W26.9 kmh W 28.3 mph45.5 kmh 30.04 in1017.3 mb 0.00 in0.0 mm 0.00 in0.0 mm 0.00 in0.0 mm
07:45 AM 54.5°F12.5°C 50.7°F10.4°C 87% 15.4 mph W24.8 kmh W 19.0 mph30.6 kmh 30.04 in1017.3 mb 0.00 in0.0 mm 0.00 in0.0 mm 0.00 in0.0 mm
08:00 AM 54.5°F12.5°C 50.7°F10.4°C 87% 15.4 mph W24.8 kmh W 19.0 mph30.6 kmh 30.01 in1016.3 mb 0.05 in1.3 mm 0.07 in1.8 mm 0.05 in1.3 mm
08:15 AM 54.9°F12.7°C 50.8°F10.4°C 86% 15.4 mph W24.8 kmh W 19.0 mph30.6 kmh 30.01 in1016.3 mb 0.05 in1.3 mm 0.00 in0.0 mm 0.05 in1.3 mm
08:30 AM 55.0°F12.8°C 50.6°F10.3°C 85% 15.4 mph W24.8 kmh W 19.0 mph30.6 kmh 30.01 in1016.3 mb 0.05 in1.3 mm 0.00 in0.0 mm 0.05 in1.3 mm
08:45 AM 55.0°F12.8°C 50.6°F10.3°C 85% 15.4 mph W24.8 kmh W 19.0 mph30.6 kmh 30.01 in1016.3 mb 0.05 in1.3 mm 0.00 in0.0 mm 0.05 in1.3 mm
09:00 AM 55.0°F12.8°C 51.2°F10.7°C 87% 15.4 mph W24.8 kmh W 19.0 mph30.6 kmh 29.98 in1015.2 mb 0.00 in0.0 mm 0.00 in0.0 mm 0.05 in1.3 mm
09:15 AM 54.9°F12.7°C 51.4°F10.8°C 88% 15.4 mph W24.8 kmh W 19.0 mph30.6 kmh 29.95 in1014.2 mb 0.00 in0.0 mm 0.00 in0.0 mm 0.05 in1.3 mm
09:30 AM 55.0°F12.8°C 51.9°F11.1°C 89% 15.4 mph W24.8 kmh W 19.0 mph30.6 kmh 29.98 in1015.2 mb 0.00 in0.0 mm 0.00 in0.0 mm 0.05 in1.3 mm
10:42 AM 55.2°F12.9°C 52.0°F11.1°C 89% 7.6 mph S12.2 kmh S 9.3 mph15.0 kmh 29.98 in1015.2 mb 0.00 in0.0 mm 0.00 in0.0 mm 0.05 in1.3 mm
10:52 AM 55.4°F13.0°C 52.2°F11.2°C 89% 7.6 mph S12.2 kmh S 9.3 mph15.0 kmh 29.98 in1015.2 mb 0.00 in0.0 mm 0.00 in0.0 mm 0.05 in1.3 mm
11:02 AM 55.6°F13.1°C 52.4°F11.3°C 89% 5.5 mph S8.9 kmh S 6.8 mph10.9 kmh 29.98 in1015.2 mb 0.00 in0.0 mm 0.00 in0.0 mm 0.05 in1.3 mm
11:12 AM 55.8°F13.2°C 52.6°F11.4°C 89% 5.5 mph S8.9 kmh S 6.8 mph10.9 kmh 29.98 in1015.2 mb 0.00 in0.0 mm 0.00 in0.0 mm 0.05 in1.3 mm
11:22 AM 55.9°F13.3°C 52.4°F11.3°C 88% 9.6 mph S15.4 kmh S 11.8 mph19.0 kmh 29.95 in1014.2 mb 0.00 in0.0 mm 0.00 in0.0 mm 0.05 in1.3 mm
11:32 AM 56.1°F13.4°C 52.6°F11.4°C 88% 9.6 mph S15.4 kmh S 11.8 mph19.0 kmh 29.95 in1014.2 mb 0.00 in0.0 mm 0.00 in0.0 mm 0.05 in1.3 mm
11:42 AM 55.9°F13.3°C 51.8°F11.0°C 86% 9.6 mph S15.4 kmh S 11.8 mph19.0 kmh 29.95 in1014.2 mb 0.00 in0.0 mm 0.00 in0.0 mm 0.05 in1.3 mm
11:52 AM 55.9°F13.3°C 51.8°F11.0°C 86% 9.6 mph S15.4 kmh S 11.8 mph19.0 kmh 29.95 in1014.2 mb 0.00 in0.0 mm 0.00 in0.0 mm 0.05 in1.3 mm
12:02 PM 56.1°F13.4°C 51.7°F10.9°C 85% 9.6 mph S15.4 kmh S 11.8 mph19.0 kmh 29.95 in1014.2 mb 0.00 in0.0 mm 0.00 in0.0 mm 0.05 in1.3 mm
12:12 PM 56.5°F13.6°C 51.7°F10.9°C 84% 9.6 mph S15.4 kmh S 11.8 mph19.0 kmh 29.95 in1014.2 mb 0.00 in0.0 mm 0.00 in0.0 mm 0.05 in1.3 mm
12:22 PM 56.7°F13.7°C 51.9°F11.1°C 84% 9.6 mph S15.4 kmh S 11.8 mph19.0 kmh 29.92 in1013.2 mb 0.00 in0.0 mm 0.00 in0.0 mm 0.05 in1.3 mm
12:32 PM 56.8°F13.8°C 51.7°F10.9°C 83% 9.6 mph S15.4 kmh S 11.8 mph19.0 kmh 29.92 in1013.2 mb 0.00 in0.0 mm 0.00 in0.0 mm 0.05 in1.3 mm
12:42 PM 57.2°F14.0°C 52.1°F11.2°C 83% 9.6 mph S15.4 kmh S 11.8 mph19.0 kmh 29.92 in1013.2 mb 0.00 in0.0 mm 0.00 in0.0 mm 0.05 in1.3 mm
12:52 PM 57.4°F14.1°C 52.3°F11.3°C 83% 10.2 mph NW16.4 kmh NW 12.5 mph20.1 kmh 29.89 in1012.2 mb 0.00 in0.0 mm 0.00 in0.0 mm 0.05 in1.3 mm
01:02 PM 57.6°F14.2°C 52.1°F11.2°C 82% 14.2 mph NW22.9 kmh NW 17.5 mph28.2 kmh 29.92 in1013.2 mb 0.00 in0.0 mm 0.00 in0.0 mm 0.05 in1.3 mm
01:12 PM 57.6°F14.2°C 52.1°F11.2°C 82% 14.2 mph NW22.9 kmh NW 17.5 mph28.2 kmh 29.92 in1013.2 mb 0.00 in0.0 mm 0.00 in0.0 mm 0.05 in1.3 mm
01:22 PM 57.7°F14.3°C 52.6°F11.4°C 83% 14.2 mph NW22.9 kmh NW 17.5 mph28.2 kmh 29.92 in1013.2 mb 0.00 in0.0 mm 0.00 in0.0 mm 0.05 in1.3 mm
01:32 PM 57.7°F14.3°C 52.6°F11.4°C 83% 14.2 mph NW22.9 kmh NW 17.5 mph28.2 kmh 29.92 in1013.2 mb 0.00 in0.0 mm 0.00 in0.0 mm 0.05 in1.3 mm
01:42 PM 57.7°F14.3°C 52.6°F11.4°C 83% 13.4 mph W21.6 kmh W 16.5 mph26.6 kmh 29.92 in1013.2 mb 0.00 in0.0 mm 0.00 in0.0 mm 0.05 in1.3 mm
01:52 PM 57.6°F14.2°C 52.4°F11.3°C 83% 13.4 mph W21.6 kmh W 16.5 mph26.6 kmh 29.92 in1013.2 mb 0.00 in0.0 mm 0.00 in0.0 mm 0.05 in1.3 mm
02:02 PM 57.6°F14.2°C 52.8°F11.6°C 84% 14.2 mph W22.9 kmh W 17.5 mph28.2 kmh 29.92 in1013.2 mb 0.00 in0.0 mm 0.00 in0.0 mm 0.05 in1.3 mm
02:12 PM 57.6°F14.2°C 53.1°F11.7°C 85% 19.8 mph W31.9 kmh W 24.3 mph39.1 kmh 29.92 in1013.2 mb 0.00 in0.0 mm 0.00 in0.0 mm 0.05 in1.3 mm
02:22 PM 57.6°F14.2°C 53.1°F11.7°C 85% 16.6 mph W26.7 kmh W 20.4 mph32.8 kmh 29.89 in1012.2 mb 0.00 in0.0 mm 0.00 in0.0 mm 0.05 in1.3 mm
02:32 PM 57.6°F14.2°C 53.4°F11.9°C 86% 16.6 mph W26.7 kmh W 20.4 mph32.8 kmh 29.92 in1013.2 mb 0.00 in0.0 mm 0.00 in0.0 mm 0.05 in1.3 mm
02:42 PM 57.4°F14.1°C 53.5°F11.9°C 87% 12.2 mph N19.6 kmh N 15.0 mph24.1 kmh 29.92 in1013.2 mb 0.00 in0.0 mm 0.00 in0.0 mm 0.05 in1.3 mm
02:52 PM 57.4°F14.1°C 53.9°F12.2°C 88% 12.2 mph N19.6 kmh N 15.0 mph24.1 kmh 29.89 in1012.2 mb 0.00 in0.0 mm 0.00 in0.0 mm 0.05 in1.3 mm
02:57 PM 57.4°F14.1°C 54.5°F12.5°C 90% 11.9 mph W19.2 kmh W 14.7 mph23.7 kmh 29.89 in1012.2 mb 0.00 in0.0 mm 0.00 in0.0 mm 0.05 in1.3 mm
03:00 PM 57.4°F14.1°C 54.8°F12.7°C 91% 11.9 mph W19.2 kmh W 14.7 mph23.7 kmh 29.89 in1012.2 mb 0.00 in0.0 mm 0.00 in0.0 mm 0.05 in1.3 mm
03:02 PM 57.4°F14.1°C 54.2°F12.3°C 89% 11.9 mph W19.2 kmh W 14.7 mph23.7 kmh 29.89 in1012.2 mb 0.00 in0.0 mm 0.00 in0.0 mm 0.05 in1.3 mm
03:12 PM 57.4°F14.1°C 54.2°F12.3°C 89% 11.9 mph W19.2 kmh W 14.7 mph23.7 kmh 29.89 in1012.2 mb 0.00 in0.0 mm 0.00 in0.0 mm 0.05 in1.3 mm
03:15 PM 57.4°F14.1°C 55.1°F12.8°C 92% 11.9 mph W19.2 kmh W 14.7 mph23.7 kmh 29.86 in1011.2 mb 0.00 in0.0 mm 0.00 in0.0 mm 0.05 in1.3 mm
03:30 PM 57.6°F14.2°C 55.3°F12.9°C 92% 9.2 mph WNW14.8 kmh WNW 14.7 mph23.7 kmh 29.86 in1011.2 mb 0.00 in0.0 mm 0.00 in0.0 mm 0.05 in1.3 mm
03:45 PM 57.7°F14.3°C 55.1°F12.8°C 91% 8.9 mph NW14.3 kmh NW 14.7 mph23.7 kmh 29.86 in1011.2 mb 0.00 in0.0 mm 0.00 in0.0 mm 0.05 in1.3 mm
04:00 PM 57.7°F14.3°C 55.1°F12.8°C 91% 9.0 mph W14.5 kmh W 14.7 mph23.7 kmh 29.86 in1011.2 mb 0.00 in0.0 mm 0.00 in0.0 mm 0.05 in1.3 mm
04:15 PM 57.7°F14.3°C 55.1°F12.8°C 91% 7.9 mph W12.7 kmh W 9.7 mph15.6 kmh 29.86 in1011.2 mb 0.00 in0.0 mm 0.00 in0.0 mm 0.05 in1.3 mm
04:30 PM 57.7°F14.3°C 54.8°F12.7°C 90% 11.3 mph W18.2 kmh W 14.0 mph22.5 kmh 29.83 in1010.2 mb 0.00 in0.0 mm 0.00 in0.0 mm 0.05 in1.3 mm
04:45 PM 57.9°F14.4°C 55.0°F12.8°C 90% 10.2 mph W16.4 kmh W 12.5 mph20.1 kmh 29.86 in1011.2 mb 0.00 in0.0 mm 0.00 in0.0 mm 0.05 in1.3 mm
05:00 PM 58.1°F14.5°C 55.2°F12.9°C 90% 10.2 mph W16.4 kmh W 12.5 mph20.1 kmh 29.86 in1011.2 mb 0.00 in0.0 mm 0.00 in0.0 mm 0.05 in1.3 mm
05:15 PM 58.1°F14.5°C 55.2°F12.9°C 90% 8.1 mph NNW13.0 kmh NNW 10.0 mph16.1 kmh 29.89 in1012.2 mb 0.00 in0.0 mm 0.00 in0.0 mm 0.05 in1.3 mm
05:30 PM 58.1°F14.5°C 54.9°F12.7°C 89% 7.3 mph W11.7 kmh W 8.9 mph14.3 kmh 29.92 in1013.2 mb 0.00 in0.0 mm 0.00 in0.0 mm 0.05 in1.3 mm
05:45 PM 57.9°F14.4°C 54.7°F12.6°C 89% 8.4 mph W13.5 kmh W 10.4 mph16.7 kmh 29.89 in1012.2 mb 0.00 in0.0 mm 0.00 in0.0 mm 0.05 in1.3 mm
06:00 PM 57.9°F14.4°C 54.7°F12.6°C 89% 7.0 mph W11.3 kmh W 8.6 mph13.8 kmh 29.89 in1012.2 mb 0.00 in0.0 mm 0.00 in0.0 mm 0.05 in1.3 mm
06:15 PM 57.7°F14.3°C 54.5°F12.5°C 89% 6.6 mph W10.6 kmh W 9.3 mph15.0 kmh 29.89 in1012.2 mb 0.00 in0.0 mm 0.00 in0.0 mm 0.05 in1.3 mm
06:30 PM 57.6°F14.2°C 54.3°F12.4°C 89% 7.6 mph W12.2 kmh W 13.6 mph21.9 kmh 29.92 in1013.2 mb 0.00 in0.0 mm 0.00 in0.0 mm 0.05 in1.3 mm
06:45 PM 57.4°F14.1°C 53.9°F12.2°C 88% 7.6 mph W12.2 kmh W 9.7 mph15.6 kmh 29.92 in1013.2 mb 0.00 in0.0 mm 0.00 in0.0 mm 0.05 in1.3 mm
07:00 PM 57.2°F14.0°C 53.7°F12.1°C 88% 12.4 mph W20.0 kmh W 25.8 mph41.5 kmh 29.92 in1013.2 mb 0.00 in0.0 mm 0.00 in0.0 mm 0.05 in1.3 mm
07:15 PM 57.2°F14.0°C 53.4°F11.9°C 87% 7.1 mph W11.4 kmh W 11.5 mph18.5 kmh 29.89 in1012.2 mb 0.00 in0.0 mm 0.00 in0.0 mm 0.05 in1.3 mm
07:30 PM 56.8°F13.8°C 52.4°F11.3°C 85% 9.8 mph W15.8 kmh W 13.6 mph21.9 kmh 29.89 in1012.2 mb 0.00 in0.0 mm 0.00 in0.0 mm 0.05 in1.3 mm
07:45 PM 56.7°F13.7°C 52.2°F11.2°C 85% 9.4 mph W15.1 kmh W 12.9 mph20.8 kmh 29.92 in1013.2 mb 0.00 in0.0 mm 0.00 in0.0 mm 0.05 in1.3 mm
08:00 PM 56.5°F13.6°C 52.0°F11.1°C 85% 7.7 mph W12.4 kmh W 11.8 mph19.0 kmh 29.92 in1013.2 mb 0.00 in0.0 mm 0.00 in0.0 mm 0.05 in1.3 mm
08:15 PM 56.5°F13.6°C 51.7°F10.9°C 84% 9.8 mph W15.8 kmh W 17.5 mph28.2 kmh 29.92 in1013.2 mb 0.00 in0.0 mm 0.00 in0.0 mm 0.05 in1.3 mm
08:30 PM 56.5°F13.6°C 51.4°F10.8°C 83% 11.8 mph W19.0 kmh W 16.1 mph25.9 kmh 29.92 in1013.2 mb 0.00 in0.0 mm 0.00 in0.0 mm 0.05 in1.3 mm
08:45 PM 56.3°F13.5°C 51.2°F10.7°C 83% 7.8 mph W12.6 kmh W 12.5 mph20.1 kmh 29.89 in1012.2 mb 0.00 in0.0 mm 0.00 in0.0 mm 0.05 in1.3 mm
09:00 PM 56.5°F13.6°C 51.1°F10.6°C 82% 10.6 mph W17.1 kmh W 16.1 mph25.9 kmh 29.92 in1013.2 mb 0.00 in0.0 mm 0.00 in0.0 mm 0.05 in1.3 mm
09:15 PM 56.3°F13.5°C 50.9°F10.5°C 82% 13.9 mph W22.4 kmh W 26.5 mph42.6 kmh 29.92 in1013.2 mb 0.00 in0.0 mm 0.00 in0.0 mm 0.05 in1.3 mm
09:30 PM 56.1°F13.4°C 50.0°F10.0°C 80% 12.0 mph W19.3 kmh W 16.1 mph25.9 kmh 29.92 in1013.2 mb 0.00 in0.0 mm 0.00 in0.0 mm 0.05 in1.3 mm
09:45 PM 55.9°F13.3°C 50.2°F10.1°C 81% 9.8 mph WSW15.8 kmh WSW 17.9 mph28.8 kmh 29.95 in1014.2 mb 0.00 in0.0 mm 0.00 in0.0 mm 0.05 in1.3 mm
10:00 PM 55.9°F13.3°C 50.2°F10.1°C 81% 10.3 mph W16.6 kmh W 19.3 mph31.1 kmh 29.92 in1013.2 mb 0.00 in0.0 mm 0.00 in0.0 mm 0.05 in1.3 mm
10:15 PM 55.8°F13.2°C 50.0°F10.0°C 81% 10.5 mph W16.9 kmh W 19.3 mph31.1 kmh 29.95 in1014.2 mb 0.00 in0.0 mm 0.00 in0.0 mm 0.05 in1.3 mm
10:30 PM 55.8°F13.2°C 50.3°F10.2°C 82% 8.4 mph W13.5 kmh W 10.4 mph16.7 kmh 29.95 in1014.2 mb 0.00 in0.0 mm 0.00 in0.0 mm 0.05 in1.3 mm
10:45 PM 55.6°F13.1°C 50.2°F10.1°C 82% 7.6 mph W12.2 kmh W 9.3 mph15.0 kmh 29.95 in1014.2 mb 0.00 in0.0 mm 0.00 in0.0 mm 0.05 in1.3 mm
11:00 PM 55.4°F13.0°C 49.7°F9.8°C 81% 12.3 mph W19.8 kmh W 17.2 mph27.7 kmh 29.95 in1014.2 mb 0.00 in0.0 mm 0.00 in0.0 mm 0.05 in1.3 mm
11:15 PM 55.4°F13.0°C 50.0°F10.0°C 82% 10.8 mph W17.4 kmh W 23.6 mph38.0 kmh 29.98 in1015.2 mb 0.00 in0.0 mm 0.00 in0.0 mm 0.05 in1.3 mm
11:30 PM 55.4°F13.0°C 49.7°F9.8°C 81% 10.6 mph WNW17.1 kmh WNW 22.9 mph36.9 kmh 29.98 in1015.2 mb 0.00 in0.0 mm 0.00 in0.0 mm 0.05 in1.3 mm
11:45 PM 55.4°F13.0°C 49.7°F9.8°C 81% 8.7 mph NW14.0 kmh NW 19.0 mph30.6 kmh 29.95 in1014.2 mb 0.00 in0.0 mm 0.00 in0.0 mm 0.05 in1.3 mm